sensor_id;sensor_type;location;lat;lon;timestamp;temperature;humidity
17938;DHT22;16051;53.024;8.630;2022-09-09T00:01:08;15.30;99.90
17938;DHT22;16051;53.024;8.630;2022-09-09T00:05:24;15.30;99.90
17938;DHT22;16051;53.024;8.630;2022-09-09T00:09:45;15.20;99.90
17938;DHT22;16051;53.024;8.630;2022-09-09T00:13:52;15.20;99.90
17938;DHT22;16051;53.024;8.630;2022-09-09T00:18:14;15.10;99.90
17938;DHT22;16051;53.024;8.630;2022-09-09T00:22:23;15.10;99.90
17938;DHT22;16051;53.024;8.630;2022-09-09T00:26:35;15.10;99.90
17938;DHT22;16051;53.024;8.630;2022-09-09T00:30:41;15.00;99.90
17938;DHT22;16051;53.024;8.630;2022-09-09T00:34:48;14.90;99.90
17938;DHT22;16051;53.024;8.630;2022-09-09T00:38:56;14.90;99.90
17938;DHT22;16051;53.024;8.630;2022-09-09T00:43:18;14.90;99.90
17938;DHT22;16051;53.024;8.630;2022-09-09T00:47:40;14.80;99.90
17938;DHT22;16051;53.024;8.630;2022-09-09T00:51:56;14.80;99.90
17938;DHT22;16051;53.024;8.630;2022-09-09T00:56:12;14.80;99.90
17938;DHT22;16051;53.024;8.630;2022-09-09T01:00:27;14.70;99.90
17938;DHT22;16051;53.024;8.630;2022-09-09T01:04:36;14.70;99.90
17938;DHT22;16051;53.024;8.630;2022-09-09T01:09:02;14.70;99.90
17938;DHT22;16051;53.024;8.630;2022-09-09T01:13:15;14.60;99.90
17938;DHT22;16051;53.024;8.630;2022-09-09T01:17:28;14.60;99.90
17938;DHT22;16051;53.024;8.630;2022-09-09T01:21:41;14.60;99.90
17938;DHT22;16051;53.024;8.630;2022-09-09T01:26:13;14.50;99.90
17938;DHT22;16051;53.024;8.630;2022-09-09T01:30:21;14.50;99.90
17938;DHT22;16051;53.024;8.630;2022-09-09T01:34:27;14.50;99.90
17938;DHT22;16051;53.024;8.630;2022-09-09T01:38:33;14.50;99.90
17938;DHT22;16051;53.024;8.630;2022-09-09T01:42:38;14.40;99.90
17938;DHT22;16051;53.024;8.630;2022-09-09T01:46:40;14.40;99.90
17938;DHT22;16051;53.024;8.630;2022-09-09T01:50:43;14.40;99.90
17938;DHT22;16051;53.024;8.630;2022-09-09T01:54:45;14.30;99.90
17938;DHT22;16051;53.024;8.630;2022-09-09T01:59:02;14.30;99.90
17938;DHT22;16051;53.024;8.630;2022-09-09T02:03:18;14.30;99.90
17938;DHT22;16051;53.024;8.630;2022-09-09T02:07:37;14.30;99.90
17938;DHT22;16051;53.024;8.630;2022-09-09T02:11:43;14.20;99.90
17938;DHT22;16051;53.024;8.630;2022-09-09T02:15:55;14.20;99.90
17938;DHT22;16051;53.024;8.630;2022-09-09T02:20:05;14.20;99.90
17938;DHT22;16051;53.024;8.630;2022-09-09T02:24:12;14.10;99.90
17938;DHT22;16051;53.024;8.630;2022-09-09T02:28:18;14.10;99.90
17938;DHT22;16051;53.024;8.630;2022-09-09T02:32:25;14.00;99.90
17938;DHT22;16051;53.024;8.630;2022-09-09T02:37:01;14.00;99.90
17938;DHT22;16051;53.024;8.630;2022-09-09T02:41:05;14.00;99.90
17938;DHT22;16051;53.024;8.630;2022-09-09T02:45:09;13.90;99.90
17938;DHT22;16051;53.024;8.630;2022-09-09T02:49:18;14.00;99.90
17938;DHT22;16051;53.024;8.630;2022-09-09T02:53:31;13.90;99.90
17938;DHT22;16051;53.024;8.630;2022-09-09T02:57:41;13.90;99.90
17938;DHT22;16051;53.024;8.630;2022-09-09T03:01:57;13.90;99.90
17938;DHT22;16051;53.024;8.630;2022-09-09T03:06:00;13.80;99.90
17938;DHT22;16051;53.024;8.630;2022-09-09T03:10:03;13.80;99.90
17938;DHT22;16051;53.024;8.630;2022-09-09T03:14:06;13.80;99.90
17938;DHT22;16051;53.024;8.630;2022-09-09T03:18:09;13.80;99.90
17938;DHT22;16051;53.024;8.630;2022-09-09T03:22:12;13.90;99.90
17938;DHT22;16051;53.024;8.630;2022-09-09T03:26:25;13.90;99.90
17938;DHT22;16051;53.024;8.630;2022-09-09T03:30:27;13.90;99.90
17938;DHT22;16051;53.024;8.630;2022-09-09T03:34:29;14.00;99.90
17938;DHT22;16051;53.024;8.630;2022-09-09T03:38:33;14.00;99.90
17938;DHT22;16051;53.024;8.630;2022-09-09T03:42:35;14.00;99.90
17938;DHT22;16051;53.024;8.630;2022-09-09T03:46:38;14.10;99.90
17938;DHT22;16051;53.024;8.630;2022-09-09T03:50:44;14.10;99.90
17938;DHT22;16051;53.024;8.630;2022-09-09T03:54:48;14.20;99.90
17938;DHT22;16051;53.024;8.630;2022-09-09T03:58:50;14.20;99.90
17938;DHT22;16051;53.024;8.630;2022-09-09T04:02:52;14.10;99.90
17938;DHT22;16051;53.024;8.630;2022-09-09T04:06:58;14.20;99.90
17938;DHT22;16051;53.024;8.630;2022-09-09T04:11:02;14.20;99.90
17938;DHT22;16051;53.024;8.630;2022-09-09T04:15:10;14.30;99.90
17938;DHT22;16051;53.024;8.630;2022-09-09T04:19:12;14.30;99.90
17938;DHT22;16051;53.024;8.630;2022-09-09T04:23:15;14.30;99.90
17938;DHT22;16051;53.024;8.630;2022-09-09T04:27:19;14.30;99.90
17938;DHT22;16051;53.024;8.630;2022-09-09T04:31:22;14.30;99.90
17938;DHT22;16051;53.024;8.630;2022-09-09T04:35:24;14.30;99.90
17938;DHT22;16051;53.024;8.630;2022-09-09T04:39:27;14.30;99.90
17938;DHT22;16051;53.024;8.630;2022-09-09T04:43:31;14.30;99.90
17938;DHT22;16051;53.024;8.630;2022-09-09T04:47:46;14.30;99.90
17938;DHT22;16051;53.024;8.630;2022-09-09T04:51:49;14.30;99.90
17938;DHT22;16051;53.024;8.630;2022-09-09T04:55:51;14.20;99.90
17938;DHT22;16051;53.024;8.630;2022-09-09T04:59:55;14.20;99.90
17938;DHT22;16051;53.024;8.630;2022-09-09T05:03:57;14.20;99.90
17938;DHT22;16051;53.024;8.630;2022-09-09T05:08:01;14.20;99.90
17938;DHT22;16051;53.024;8.630;2022-09-09T05:12:40;14.20;99.90
17938;DHT22;16051;53.024;8.630;2022-09-09T05:16:44;14.10;99.90
17938;DHT22;16051;53.024;8.630;2022-09-09T05:20:47;14.20;99.90
17938;DHT22;16051;53.024;8.630;2022-09-09T05:24:50;14.20;99.90
17938;DHT22;16051;53.024;8.630;2022-09-09T05:28:52;14.10;99.90
17938;DHT22;16051;53.024;8.630;2022-09-09T05:32:57;14.10;99.90
17938;DHT22;16051;53.024;8.630;2022-09-09T05:37:10;14.10;99.90
17938;DHT22;16051;53.024;8.630;2022-09-09T05:41:14;14.10;99.90
17938;DHT22;16051;53.024;8.630;2022-09-09T05:45:17;14.20;99.90
17938;DHT22;16051;53.024;8.630;2022-09-09T05:49:21;14.20;99.90
17938;DHT22;16051;53.024;8.630;2022-09-09T05:53:23;14.30;99.90
17938;DHT22;16051;53.024;8.630;2022-09-09T05:57:26;14.30;99.90
17938;DHT22;16051;53.024;8.630;2022-09-09T06:06:16;14.40;99.90
17938;DHT22;16051;53.024;8.630;2022-09-09T06:10:21;14.40;99.90
17938;DHT22;16051;53.024;8.630;2022-09-09T06:19:15;14.50;99.90
17938;DHT22;16051;53.024;8.630;2022-09-09T06:23:18;14.50;99.90
17938;DHT22;16051;53.024;8.630;2022-09-09T06:27:21;14.50;99.90
17938;DHT22;16051;53.024;8.630;2022-09-09T06:31:24;14.90;99.90
17938;DHT22;16051;53.024;8.630;2022-09-09T06:35:30;14.80;99.90
17938;DHT22;16051;53.024;8.630;2022-09-09T06:39:34;14.80;99.90
17938;DHT22;16051;53.024;8.630;2022-09-09T06:43:36;14.80;99.90
17938;DHT22;16051;53.024;8.630;2022-09-09T06:47:38;14.80;99.90
17938;DHT22;16051;53.024;8.630;2022-09-09T06:51:41;14.80;99.90
17938;DHT22;16051;53.024;8.630;2022-09-09T06:55:45;14.80;99.90
17938;DHT22;16051;53.024;8.630;2022-09-09T06:59:48;14.90;99.90
17938;DHT22;16051;53.024;8.630;2022-09-09T07:03:52;15.00;99.90
17938;DHT22;16051;53.024;8.630;2022-09-09T07:07:55;15.10;99.90
17938;DHT22;16051;53.024;8.630;2022-09-09T07:11:58;15.20;99.90
17938;DHT22;16051;53.024;8.630;2022-09-09T07:16:20;15.40;99.90
17938;DHT22;16051;53.024;8.630;2022-09-09T07:20:25;15.70;99.90
17938;DHT22;16051;53.024;8.630;2022-09-09T07:24:27;16.10;99.90
17938;DHT22;16051;53.024;8.630;2022-09-09T07:28:32;16.30;99.90
17938;DHT22;16051;53.024;8.630;2022-09-09T07:32:35;16.70;99.90
17938;DHT22;16051;53.024;8.630;2022-09-09T07:36:38;16.80;99.90
17938;DHT22;16051;53.024;8.630;2022-09-09T07:40:52;16.90;99.90
17938;DHT22;16051;53.024;8.630;2022-09-09T07:44:56;17.00;99.90
17938;DHT22;16051;53.024;8.630;2022-09-09T07:49:02;17.20;99.90
17938;DHT22;16051;53.024;8.630;2022-09-09T07:53:11;17.20;99.90
17938;DHT22;16051;53.024;8.630;2022-09-09T07:57:16;17.30;99.90
17938;DHT22;16051;53.024;8.630;2022-09-09T08:01:24;17.40;99.90
17938;DHT22;16051;53.024;8.630;2022-09-09T08:05:36;17.20;99.90
17938;DHT22;16051;53.024;8.630;2022-09-09T08:09:40;17.30;99.90
17938;DHT22;16051;53.024;8.630;2022-09-09T08:13:44;17.50;99.90
17938;DHT22;16051;53.024;8.630;2022-09-09T08:17:53;17.60;99.90
17938;DHT22;16051;53.024;8.630;2022-09-09T08:22:10;17.60;99.90
17938;DHT22;16051;53.024;8.630;2022-09-09T08:26:14;17.70;99.90
17938;DHT22;16051;53.024;8.630;2022-09-09T08:30:17;17.80;99.90
17938;DHT22;16051;53.024;8.630;2022-09-09T08:34:25;17.80;99.90
17938;DHT22;16051;53.024;8.630;2022-09-09T08:38:30;18.00;99.90
17938;DHT22;16051;53.024;8.630;2022-09-09T08:42:43;18.20;99.90
17938;DHT22;16051;53.024;8.630;2022-09-09T08:46:56;18.30;99.90
17938;DHT22;16051;53.024;8.630;2022-09-09T08:51:13;18.60;99.90
17938;DHT22;16051;53.024;8.630;2022-09-09T08:55:22;18.80;99.90
17938;DHT22;16051;53.024;8.630;2022-09-09T08:59:27;19.00;99.90
17938;DHT22;16051;53.024;8.630;2022-09-09T09:03:43;19.10;99.90
17938;DHT22;16051;53.024;8.630;2022-09-09T09:08:01;19.20;99.90
17938;DHT22;16051;53.024;8.630;2022-09-09T09:12:15;19.20;99.90
17938;DHT22;16051;53.024;8.630;2022-09-09T09:16:33;19.30;99.90
17938;DHT22;16051;53.024;8.630;2022-09-09T09:20:44;19.40;99.90
17938;DHT22;16051;53.024;8.630;2022-09-09T09:25:08;19.50;99.90
17938;DHT22;16051;53.024;8.630;2022-09-09T09:29:19;19.50;99.90
17938;DHT22;16051;53.024;8.630;2022-09-09T09:33:26;19.50;99.90
17938;DHT22;16051;53.024;8.630;2022-09-09T09:37:34;19.70;99.90
17938;DHT22;16051;53.024;8.630;2022-09-09T09:41:41;20.10;99.90
17938;DHT22;16051;53.024;8.630;2022-09-09T09:45:44;20.50;99.90
17938;DHT22;16051;53.024;8.630;2022-09-09T09:49:53;20.50;99.90
17938;DHT22;16051;53.024;8.630;2022-09-09T09:54:17;20.60;99.90
17938;DHT22;16051;53.024;8.630;2022-09-09T09:58:27;20.90;99.90
17938;DHT22;16051;53.024;8.630;2022-09-09T10:02:39;21.10;99.90
17938;DHT22;16051;53.024;8.630;2022-09-09T10:06:43;21.30;99.90
17938;DHT22;16051;53.024;8.630;2022-09-09T10:11:15;22.10;99.90
17938;DHT22;16051;53.024;8.630;2022-09-09T10:15:37;21.60;99.90
17938;DHT22;16051;53.024;8.630;2022-09-09T10:19:54;21.60;99.90
17938;DHT22;16051;53.024;8.630;2022-09-09T10:24:27;21.90;99.90
17938;DHT22;16051;53.024;8.630;2022-09-09T10:29:12;21.80;99.90
17938;DHT22;16051;53.024;8.630;2022-09-09T10:33:32;21.50;99.90
17938;DHT22;16051;53.024;8.630;2022-09-09T10:42:16;22.00;99.90
17938;DHT22;16051;53.024;8.630;2022-09-09T10:46:35;22.40;99.90
17938;DHT22;16051;53.024;8.630;2022-09-09T10:50:52;22.50;99.90
17938;DHT22;16051;53.024;8.630;2022-09-09T10:55:02;22.90;99.90
17938;DHT22;16051;53.024;8.630;2022-09-09T10:59:16;23.30;99.90
17938;DHT22;16051;53.024;8.630;2022-09-09T11:03:26;23.80;99.90
17938;DHT22;16051;53.024;8.630;2022-09-09T11:07:37;24.00;99.90
17938;DHT22;16051;53.024;8.630;2022-09-09T11:11:49;23.90;99.90
17938;DHT22;16051;53.024;8.630;2022-09-09T11:16:00;23.60;99.90
17938;DHT22;16051;53.024;8.630;2022-09-09T11:20:06;23.20;99.90
17938;DHT22;16051;53.024;8.630;2022-09-09T11:24:20;23.10;99.90
17938;DHT22;16051;53.024;8.630;2022-09-09T11:28:39;22.80;99.90
17938;DHT22;16051;53.024;8.630;2022-09-09T11:33:23;22.60;99.90
17938;DHT22;16051;53.024;8.630;2022-09-09T11:37:54;22.20;99.90
17938;DHT22;16051;53.024;8.630;2022-09-09T11:42:27;22.00;99.90
17938;DHT22;16051;53.024;8.630;2022-09-09T11:46:34;21.70;99.90
17938;DHT22;16051;53.024;8.630;2022-09-09T11:50:39;21.40;99.90
17938;DHT22;16051;53.024;8.630;2022-09-09T11:54:47;21.20;99.90
17938;DHT22;16051;53.024;8.630;2022-09-09T11:58:57;20.60;99.90
17938;DHT22;16051;53.024;8.630;2022-09-09T12:03:40;20.10;99.90
17938;DHT22;16051;53.024;8.630;2022-09-09T12:07:51;19.80;99.90
17938;DHT22;16051;53.024;8.630;2022-09-09T12:12:22;19.80;99.90
17938;DHT22;16051;53.024;8.630;2022-09-09T12:16:35;19.80;99.90
17938;DHT22;16051;53.024;8.630;2022-09-09T12:20:52;19.60;99.90
17938;DHT22;16051;53.024;8.630;2022-09-09T12:25:08;19.80;99.90
17938;DHT22;16051;53.024;8.630;2022-09-09T12:29:33;19.90;99.90
17938;DHT22;16051;53.024;8.630;2022-09-09T12:33:45;20.20;99.90
17938;DHT22;16051;53.024;8.630;2022-09-09T12:37:50;20.40;99.90
17938;DHT22;16051;53.024;8.630;2022-09-09T12:41:57;20.70;99.90
17938;DHT22;16051;53.024;8.630;2022-09-09T12:46:01;20.90;99.90
17938;DHT22;16051;53.024;8.630;2022-09-09T12:50:15;21.20;99.90
17938;DHT22;16051;53.024;8.630;2022-09-09T12:54:21;21.40;99.90
17938;DHT22;16051;53.024;8.630;2022-09-09T12:58:24;21.70;99.90
17938;DHT22;16051;53.024;8.630;2022-09-09T13:02:31;21.70;99.90
17938;DHT22;16051;53.024;8.630;2022-09-09T13:06:36;22.70;99.90
17938;DHT22;16051;53.024;8.630;2022-09-09T13:10:41;23.60;99.90
17938;DHT22;16051;53.024;8.630;2022-09-09T13:14:50;23.80;99.90
17938;DHT22;16051;53.024;8.630;2022-09-09T13:18:55;22.90;99.90
17938;DHT22;16051;53.024;8.630;2022-09-09T13:22:59;21.80;99.90
17938;DHT22;16051;53.024;8.630;2022-09-09T13:27:25;21.40;99.90
17938;DHT22;16051;53.024;8.630;2022-09-09T13:31:33;21.20;99.90
17938;DHT22;16051;53.024;8.630;2022-09-09T13:35:46;20.70;99.90
17938;DHT22;16051;53.024;8.630;2022-09-09T13:39:52;20.60;99.90
17938;DHT22;16051;53.024;8.630;2022-09-09T13:43:55;20.40;99.90
17938;DHT22;16051;53.024;8.630;2022-09-09T13:48:09;20.40;99.90
17938;DHT22;16051;53.024;8.630;2022-09-09T13:52:32;20.40;99.90
17938;DHT22;16051;53.024;8.630;2022-09-09T13:56:35;20.00;99.90
17938;DHT22;16051;53.024;8.630;2022-09-09T14:00:39;19.60;99.90
17938;DHT22;16051;53.024;8.630;2022-09-09T14:04:42;19.50;99.90
17938;DHT22;16051;53.024;8.630;2022-09-09T14:08:45;19.20;99.90
17938;DHT22;16051;53.024;8.630;2022-09-09T14:12:47;18.90;99.90
17938;DHT22;16051;53.024;8.630;2022-09-09T14:16:49;18.80;99.90
17938;DHT22;16051;53.024;8.630;2022-09-09T14:20:52;18.60;99.90
17938;DHT22;16051;53.024;8.630;2022-09-09T14:24:55;18.50;99.90
17938;DHT22;16051;53.024;8.630;2022-09-09T14:28:58;18.60;99.90
17938;DHT22;16051;53.024;8.630;2022-09-09T14:33:15;18.80;99.90
17938;DHT22;16051;53.024;8.630;2022-09-09T14:37:25;18.80;99.90
17938;DHT22;16051;53.024;8.630;2022-09-09T14:41:28;18.80;99.90
17938;DHT22;16051;53.024;8.630;2022-09-09T14:45:31;18.80;99.90
17938;DHT22;16051;53.024;8.630;2022-09-09T14:49:38;18.70;99.90
17938;DHT22;16051;53.024;8.630;2022-09-09T14:53:42;18.70;99.90
17938;DHT22;16051;53.024;8.630;2022-09-09T14:57:45;18.60;99.90
17938;DHT22;16051;53.024;8.630;2022-09-09T15:01:47;18.60;99.90
17938;DHT22;16051;53.024;8.630;2022-09-09T15:05:49;18.60;99.90
17938;DHT22;16051;53.024;8.630;2022-09-09T15:09:55;18.70;99.90
17938;DHT22;16051;53.024;8.630;2022-09-09T15:13:57;18.70;99.90
17938;DHT22;16051;53.024;8.630;2022-09-09T15:17:59;18.70;99.90
17938;DHT22;16051;53.024;8.630;2022-09-09T15:22:02;18.80;99.90
17938;DHT22;16051;53.024;8.630;2022-09-09T15:26:07;19.00;99.90
17938;DHT22;16051;53.024;8.630;2022-09-09T15:30:11;19.00;99.90
17938;DHT22;16051;53.024;8.630;2022-09-09T15:34:13;19.00;99.90
17938;DHT22;16051;53.024;8.630;2022-09-09T15:38:16;19.00;99.90
17938;DHT22;16051;53.024;8.630;2022-09-09T15:42:20;19.00;99.90
17938;DHT22;16051;53.024;8.630;2022-09-09T15:46:36;19.10;99.90
17938;DHT22;16051;53.024;8.630;2022-09-09T15:50:40;19.10;99.90
17938;DHT22;16051;53.024;8.630;2022-09-09T15:54:42;19.20;99.90
17938;DHT22;16051;53.024;8.630;2022-09-09T15:58:47;19.20;99.90
17938;DHT22;16051;53.024;8.630;2022-09-09T16:02:50;19.20;99.90
17938;DHT22;16051;53.024;8.630;2022-09-09T16:07:01;19.20;99.90
17938;DHT22;16051;53.024;8.630;2022-09-09T16:11:18;19.30;99.90
17938;DHT22;16051;53.024;8.630;2022-09-09T16:15:22;19.30;99.90
17938;DHT22;16051;53.024;8.630;2022-09-09T16:19:25;19.40;99.90
17938;DHT22;16051;53.024;8.630;2022-09-09T16:23:27;19.40;99.90
17938;DHT22;16051;53.024;8.630;2022-09-09T16:27:36;19.30;99.90
17938;DHT22;16051;53.024;8.630;2022-09-09T16:31:40;19.30;99.90
17938;DHT22;16051;53.024;8.630;2022-09-09T16:35:43;19.30;99.90
17938;DHT22;16051;53.024;8.630;2022-09-09T16:39:45;19.30;99.90
17938;DHT22;16051;53.024;8.630;2022-09-09T16:43:52;19.20;99.90
17938;DHT22;16051;53.024;8.630;2022-09-09T16:48:00;19.10;99.90
17938;DHT22;16051;53.024;8.630;2022-09-09T16:52:03;19.10;99.90
17938;DHT22;16051;53.024;8.630;2022-09-09T16:56:07;19.10;99.90
17938;DHT22;16051;53.024;8.630;2022-09-09T17:00:10;19.00;99.90
17938;DHT22;16051;53.024;8.630;2022-09-09T17:04:17;19.00;99.90
17938;DHT22;16051;53.024;8.630;2022-09-09T17:08:22;18.90;99.90
17938;DHT22;16051;53.024;8.630;2022-09-09T17:12:24;18.80;99.90
17938;DHT22;16051;53.024;8.630;2022-09-09T17:16:32;18.60;99.90
17938;DHT22;16051;53.024;8.630;2022-09-09T17:20:39;18.50;99.90
17938;DHT22;16051;53.024;8.630;2022-09-09T17:24:43;18.40;99.90
17938;DHT22;16051;53.024;8.630;2022-09-09T17:28:54;18.30;99.90
17938;DHT22;16051;53.024;8.630;2022-09-09T17:32:59;18.20;99.90
17938;DHT22;16051;53.024;8.630;2022-09-09T17:37:18;18.10;99.90
17938;DHT22;16051;53.024;8.630;2022-09-09T17:41:24;17.90;99.90
17938;DHT22;16051;53.024;8.630;2022-09-09T17:45:31;17.80;99.90
17938;DHT22;16051;53.024;8.630;2022-09-09T17:49:33;17.70;99.90
17938;DHT22;16051;53.024;8.630;2022-09-09T17:53:38;17.60;99.90
17938;DHT22;16051;53.024;8.630;2022-09-09T17:58:05;17.50;99.90
17938;DHT22;16051;53.024;8.630;2022-09-09T18:02:08;17.40;99.90
17938;DHT22;16051;53.024;8.630;2022-09-09T18:06:14;17.40;99.90
17938;DHT22;16051;53.024;8.630;2022-09-09T18:10:19;17.30;99.90
17938;DHT22;16051;53.024;8.630;2022-09-09T18:14:23;17.30;99.90
17938;DHT22;16051;53.024;8.630;2022-09-09T18:18:27;17.20;99.90
17938;DHT22;16051;53.024;8.630;2022-09-09T18:22:30;17.20;99.90
17938;DHT22;16051;53.024;8.630;2022-09-09T18:26:36;17.20;99.90
17938;DHT22;16051;53.024;8.630;2022-09-09T18:30:41;17.10;99.90
17938;DHT22;16051;53.024;8.630;2022-09-09T18:34:43;17.10;99.90
17938;DHT22;16051;53.024;8.630;2022-09-09T18:38:46;17.10;99.90
17938;DHT22;16051;53.024;8.630;2022-09-09T18:42:50;17.10;99.90
17938;DHT22;16051;53.024;8.630;2022-09-09T18:46:53;17.00;99.90
17938;DHT22;16051;53.024;8.630;2022-09-09T18:50:55;17.00;99.90
17938;DHT22;16051;53.024;8.630;2022-09-09T18:55:13;17.00;99.90
17938;DHT22;16051;53.024;8.630;2022-09-09T18:59:19;16.90;99.90
17938;DHT22;16051;53.024;8.630;2022-09-09T19:03:24;16.90;99.90
17938;DHT22;16051;53.024;8.630;2022-09-09T19:07:27;16.90;99.90
17938;DHT22;16051;53.024;8.630;2022-09-09T19:11:29;16.80;99.90
17938;DHT22;16051;53.024;8.630;2022-09-09T19:15:39;16.70;99.90
17938;DHT22;16051;53.024;8.630;2022-09-09T19:19:41;16.70;99.90
17938;DHT22;16051;53.024;8.630;2022-09-09T19:23:44;16.60;99.90
17938;DHT22;16051;53.024;8.630;2022-09-09T19:27:47;16.60;99.90
17938;DHT22;16051;53.024;8.630;2022-09-09T19:31:52;16.50;99.90
17938;DHT22;16051;53.024;8.630;2022-09-09T19:35:58;16.40;99.90
17938;DHT22;16051;53.024;8.630;2022-09-09T19:40:02;16.40;99.90
17938;DHT22;16051;53.024;8.630;2022-09-09T19:44:13;16.40;99.90
17938;DHT22;16051;53.024;8.630;2022-09-09T19:48:18;16.30;99.90
17938;DHT22;16051;53.024;8.630;2022-09-09T19:52:21;16.30;99.90
17938;DHT22;16051;53.024;8.630;2022-09-09T19:56:24;16.20;99.90
17938;DHT22;16051;53.024;8.630;2022-09-09T20:00:27;16.20;99.90
17938;DHT22;16051;53.024;8.630;2022-09-09T20:04:31;16.10;99.90
17938;DHT22;16051;53.024;8.630;2022-09-09T20:08:35;16.10;99.90
17938;DHT22;16051;53.024;8.630;2022-09-09T20:12:38;16.00;99.90
17938;DHT22;16051;53.024;8.630;2022-09-09T20:16:54;15.90;99.90
17938;DHT22;16051;53.024;8.630;2022-09-09T20:20:58;16.00;99.90
17938;DHT22;16051;53.024;8.630;2022-09-09T20:25:01;16.00;99.90
17938;DHT22;16051;53.024;8.630;2022-09-09T20:29:05;15.90;99.90
17938;DHT22;16051;53.024;8.630;2022-09-09T20:33:08;15.90;99.90
17938;DHT22;16051;53.024;8.630;2022-09-09T20:37:12;15.90;99.90
17938;DHT22;16051;53.024;8.630;2022-09-09T20:41:15;15.90;99.90
17938;DHT22;16051;53.024;8.630;2022-09-09T20:45:21;15.90;99.90
17938;DHT22;16051;53.024;8.630;2022-09-09T20:49:23;15.80;99.90
17938;DHT22;16051;53.024;8.630;2022-09-09T20:53:27;15.80;99.90
17938;DHT22;16051;53.024;8.630;2022-09-09T20:57:41;15.80;99.90
17938;DHT22;16051;53.024;8.630;2022-09-09T21:01:43;15.70;99.90
17938;DHT22;16051;53.024;8.630;2022-09-09T21:05:47;15.80;99.90
17938;DHT22;16051;53.024;8.630;2022-09-09T21:09:51;15.80;99.90
17938;DHT22;16051;53.024;8.630;2022-09-09T21:13:57;15.70;99.90
17938;DHT22;16051;53.024;8.630;2022-09-09T21:17:59;15.80;99.90
17938;DHT22;16051;53.024;8.630;2022-09-09T21:22:01;15.80;99.90
17938;DHT22;16051;53.024;8.630;2022-09-09T21:26:05;15.80;99.90
17938;DHT22;16051;53.024;8.630;2022-09-09T21:30:10;15.80;99.90
17938;DHT22;16051;53.024;8.630;2022-09-09T21:34:13;15.70;99.90
17938;DHT22;16051;53.024;8.630;2022-09-09T21:38:19;15.80;99.90
17938;DHT22;16051;53.024;8.630;2022-09-09T21:42:24;15.70;99.90
17938;DHT22;16051;53.024;8.630;2022-09-09T21:46:26;15.70;99.90
17938;DHT22;16051;53.024;8.630;2022-09-09T21:50:28;15.70;99.90
17938;DHT22;16051;53.024;8.630;2022-09-09T21:54:30;15.70;99.90
17938;DHT22;16051;53.024;8.630;2022-09-09T21:58:34;15.70;99.90
17938;DHT22;16051;53.024;8.630;2022-09-09T22:02:37;15.70;99.90
17938;DHT22;16051;53.024;8.630;2022-09-09T22:06:50;15.70;99.90
17938;DHT22;16051;53.024;8.630;2022-09-09T22:10:53;15.70;99.90
17938;DHT22;16051;53.024;8.630;2022-09-09T22:14:56;15.70;99.90
17938;DHT22;16051;53.024;8.630;2022-09-09T22:18:59;15.70;99.90
17938;DHT22;16051;53.024;8.630;2022-09-09T22:23:02;15.70;99.90
17938;DHT22;16051;53.024;8.630;2022-09-09T22:27:04;15.70;99.90
17938;DHT22;16051;53.024;8.630;2022-09-09T22:31:08;15.70;99.90
17938;DHT22;16051;53.024;8.630;2022-09-09T22:35:23;15.70;99.90
17938;DHT22;16051;53.024;8.630;2022-09-09T22:39:26;15.70;99.90
17938;DHT22;16051;53.024;8.630;2022-09-09T22:43:28;15.70;99.90
17938;DHT22;16051;53.024;8.630;2022-09-09T22:47:34;15.70;99.90
17938;DHT22;16051;53.024;8.630;2022-09-09T22:51:37;15.70;99.90
17938;DHT22;16051;53.024;8.630;2022-09-09T22:55:39;15.70;99.90
17938;DHT22;16051;53.024;8.630;2022-09-09T22:59:42;15.70;99.90
17938;DHT22;16051;53.024;8.630;2022-09-09T23:03:47;15.70;99.90
17938;DHT22;16051;53.024;8.630;2022-09-09T23:07:50;15.60;99.90
17938;DHT22;16051;53.024;8.630;2022-09-09T23:11:53;15.60;99.90
17938;DHT22;16051;53.024;8.630;2022-09-09T23:16:30;15.60;99.90
17938;DHT22;16051;53.024;8.630;2022-09-09T23:20:39;15.60;99.90
17938;DHT22;16051;53.024;8.630;2022-09-09T23:24:41;15.60;99.90
17938;DHT22;16051;53.024;8.630;2022-09-09T23:28:43;15.60;99.90
17938;DHT22;16051;53.024;8.630;2022-09-09T23:32:47;15.60;99.90
17938;DHT22;16051;53.024;8.630;2022-09-09T23:36:51;15.60;99.90
17938;DHT22;16051;53.024;8.630;2022-09-09T23:40:54;15.50;99.90
17938;DHT22;16051;53.024;8.630;2022-09-09T23:49:32;15.50;99.90
17938;DHT22;16051;53.024;8.630;2022-09-09T23:53:39;15.60;99.90
17938;DHT22;16051;53.024;8.630;2022-09-09T23:57:54;15.50;99.90
